Time;durP1;ratioP1;P1;durP2;ratioP2;P2;SDS_P1;SDS_P2;PMS_P1;PMS_P2;Temp;Humidity;BMP_temperature;BMP_pressure;BME280_temperature;BME280_humidity;BME280_pressure;Samples;Min_cycle;Max_cycle;Signal;HPM_P1;HPM_P2
2022/09/15 00:00:20;;;;;;;27.95;18.23;;;;;;;15.92;77.71;99325.38;5095536;28;20515;-62
2022/09/15 00:02:47;;;;;;;30.63;20.27;;;;;;;15.86;77.07;99314.84;5095476;28;20526;-62
2022/09/15 00:05:14;;;;;;;30.60;19.63;;;;;;;15.85;77.06;99311.22;5095646;28;20056;-62
2022/09/15 00:07:45;;;;;;;26.33;17.80;;;;;;;15.96;76.62;99320.63;5095814;28;20052;-62
2022/09/15 00:10:13;;;;;;;32.67;19.67;;;;;;;15.89;76.41;99314.88;5118506;27;20071;-62
2022/09/15 00:12:40;;;;;;;30.90;20.42;;;;;;;16.02;76.04;99318.28;5115424;28;20087;-62
2022/09/15 00:15:12;;;;;;;31.15;19.27;;;;;;;16.05;76.72;99317.53;5130309;27;20055;-62
2022/09/15 00:17:42;;;;;;;28.92;20.35;;;;;;;16.05;76.55;99317.53;5136466;27;20054;-62
2022/09/15 00:20:10;;;;;;;29.70;18.85;;;;;;;15.93;76.46;99312.94;5136043;27;20426;-65
2022/09/15 00:22:38;;;;;;;35.47;23.08;;;;;;;15.92;77.08;99319.75;5111764;27;20075;-63
2022/09/15 00:25:06;;;;;;;34.20;21.70;;;;;;;15.94;76.65;99316.56;5095175;28;20051;-62
2022/09/15 00:27:34;;;;;;;38.10;24.45;;;;;;;15.93;76.27;99312.13;5095335;28;20044;-63
2022/09/15 00:30:01;;;;;;;32.85;20.95;;;;;;;15.84;76.41;99304.00;5095489;28;20048;-63
2022/09/15 00:32:30;;;;;;;30.80;19.90;;;;;;;15.80;76.59;99301.13;5095258;28;20044;-62
2022/09/15 00:34:58;;;;;;;36.47;21.65;;;;;;;15.73;76.43;99309.44;5095169;28;20047;-62
2022/09/15 00:37:25;;;;;;;33.03;19.48;;;;;;;15.71;76.62;99308.97;5109949;28;20063;-63
2022/09/15 00:39:53;;;;;;;39.78;24.00;;;;;;;15.63;77.35;99312.88;5114774;28;20527;-62
2022/09/15 00:42:22;;;;;;;33.53;20.15;;;;;;;15.60;77.36;99310.78;5115199;28;20055;-62
2022/09/15 00:44:56;;;;;;;33.20;20.77;;;;;;;15.58;77.47;99310.38;5114850;28;20400;-62
2022/09/15 00:47:26;;;;;;;35.22;21.23;;;;;;;15.56;77.06;99312.72;5115199;28;20055;-62
2022/09/15 00:50:02;;;;;;;34.17;20.05;;;;;;;15.50;77.00;99315.06;5111385;28;20138;-63
2022/09/15 00:52:40;;;;;;;35.83;21.27;;;;;;;15.47;76.68;99315.00;5095194;28;20056;-62
2022/09/15 00:55:12;;;;;;;37.70;21.75;;;;;;;15.44;77.14;99310.97;5094628;28;20044;-63
2022/09/15 00:57:42;;;;;;;36.08;22.73;;;;;;;15.39;77.30;99308.47;5094248;28;20056;-63
2022/09/15 01:00:13;;;;;;;33.42;20.42;;;;;;;15.32;77.08;99314.75;5094880;28;20052;-62
2022/09/15 01:02:43;;;;;;;37.35;22.33;;;;;;;15.27;77.10;99306.69;5094285;28;20052;-62
2022/09/15 01:05:16;;;;;;;31.67;20.13;;;;;;;15.25;77.74;99309.03;5103521;28;20051;-63
2022/09/15 01:07:47;;;;;;;33.10;20.90;;;;;;;15.17;77.50;99307.28;5114854;28;20055;-63
2022/09/15 01:10:24;;;;;;;37.97;21.27;;;;;;;15.08;78.24;99309.56;5133379;27;20050;-63
2022/09/15 01:12:52;;;;;;;36.58;21.92;;;;;;;15.04;78.20;99309.47;5124679;27;20413;-63
2022/09/15 01:15:23;;;;;;;37.53;21.70;;;;;;;14.98;77.41;99303.34;5112603;28;20492;-63
2022/09/15 01:18:03;;;;;;;36.58;23.13;;;;;;;14.94;77.70;99310.88;5114294;28;20060;-61
2022/09/15 01:20:58;;;;;;;37.03;23.00;;;;;;;14.88;78.42;99320.00;5105636;28;20427;-62
2022/09/15 01:24:14;;;;;;;30.85;19.02;;;;;;;14.85;77.95;99321.53;5114197;28;20404;-62
2022/09/15 01:27:05;;;;;;;30.10;19.02;;;;;;;14.81;77.79;99317.88;5114443;28;20054;-63
2022/09/15 01:29:58;;;;;;;39.10;22.13;;;;;;;14.59;79.27;99305.41;5114435;27;20056;-62
2022/09/15 01:35:32;;;;;;;33.97;21.73;;;;;;;14.52;79.23;99308.84;5097060;28;20507;-63
2022/09/15 01:38:06;;;;;;;51.17;27.00;;;;;;;14.44;79.99;99311.88;5093714;28;20052;-62
2022/09/15 01:40:41;;;;;;;41.03;23.75;;;;;;;14.40;79.69;99309.84;5093722;28;20056;-63
2022/09/15 01:43:11;;;;;;;43.92;24.77;;;;;;;14.38;81.02;99306.59;5094257;28;20048;-63
2022/09/15 01:45:42;;;;;;;40.42;23.00;;;;;;;14.37;80.77;99299.34;5093547;28;20056;-63
2022/09/15 01:48:11;;;;;;;40.78;23.73;;;;;;;14.32;81.53;99301.63;5104122;28;20146;-63
2022/09/15 01:50:44;;;;;;;57.40;26.33;;;;;;;14.27;81.12;99299.13;5113575;28;20043;-62
2022/09/15 01:53:16;;;;;;;42.55;24.00;;;;;;;14.30;81.53;99295.59;5113295;28;20491;-62
2022/09/15 01:55:48;;;;;;;45.13;22.60;;;;;;;14.32;80.75;99298.81;5111923;28;20056;-62
2022/09/15 01:58:16;;;;;;;39.05;20.83;;;;;;;14.27;80.79;99301.94;5093783;28;20059;-62
2022/09/15 02:00:49;;;;;;;39.28;22.02;;;;;;;14.26;80.84;99303.94;5093126;28;20052;-63
2022/09/15 02:03:21;;;;;;;39.47;21.00;;;;;;;14.26;80.50;99295.53;5093222;28;20095;-62
2022/09/15 02:05:53;;;;;;;38.30;21.83;;;;;;;14.23;80.83;99301.84;5110921;28;20051;-63
2022/09/15 02:08:33;;;;;;;36.28;20.73;;;;;;;14.19;80.45;99306.56;5114976;27;20078;-58
2022/09/15 02:11:09;;;;;;;36.00;21.33;;;;;;;14.18;79.28;99314.16;5099861;27;20060;-58
2022/09/15 02:13:47;;;;;;;37.85;20.58;;;;;;;14.18;80.46;99305.75;5092753;28;20055;-58
2022/09/15 02:16:19;;;;;;;34.75;18.92;;;;;;;14.18;79.69;99304.97;5093123;28;20067;-58
2022/09/15 02:19:09;;;;;;;37.65;22.45;;;;;;;14.14;80.63;99307.69;5093314;28;20056;-58
2022/09/15 02:21:52;;;;;;;37.75;21.40;;;;;;;14.10;81.26;99305.97;5095628;28;20480;-58
2022/09/15 02:24:26;;;;;;;33.40;19.13;;;;;;;14.08;81.01;99303.53;5092993;28;20055;-58
2022/09/15 02:26:57;;;;;;;39.63;21.08;;;;;;;14.07;80.28;99304.72;5092890;28;20056;-58
2022/09/15 02:29:27;;;;;;;43.55;22.85;;;;;;;14.06;80.62;99303.09;5098204;28;20476;-58
2022/09/15 02:32:01;;;;;;;37.17;20.77;;;;;;;14.08;79.94;99303.53;5113517;28;20066;-58
2022/09/15 02:34:34;;;;;;;34.25;18.90;;;;;;;14.08;80.66;99308.34;5111520;28;20062;-58
2022/09/15 02:37:03;;;;;;;31.48;19.25;;;;;;;14.06;79.44;99308.69;5097888;28;20060;-58
2022/09/15 02:39:34;;;;;;;36.55;21.50;;;;;;;14.04;80.55;99307.44;5092723;28;20052;-58
2022/09/15 02:42:04;;;;;;;33.97;19.50;;;;;;;14.05;80.25;99314.66;5092998;28;20055;-58
2022/09/15 02:44:32;;;;;;;32.47;18.85;;;;;;;14.04;79.69;99308.25;5107198;28;20055;-58
2022/09/15 02:47:02;;;;;;;36.58;20.05;;;;;;;14.07;79.47;99318.72;5112921;28;20055;-58
2022/09/15 02:49:30;;;;;;;29.70;18.50;;;;;;;14.01;80.76;99314.59;5112807;28;20055;-58
2022/09/15 02:51:57;;;;;;;35.03;18.65;;;;;;;14.05;80.62;99320.25;5113502;28;20048;-58
2022/09/15 02:54:26;;;;;;;29.13;17.48;;;;;;;14.05;79.58;99315.50;5113274;28;20048;-58
2022/09/15 02:56:54;;;;;;;30.27;17.58;;;;;;;14.08;79.63;99309.13;5111398;28;20051;-58
2022/09/15 03:00:11;;;;;;;31.80;18.10;;;;;;;14.10;79.72;99312.38;5091748;28;20063;-59
2022/09/15 03:02:19;;;;;;;26.35;16.50;;;;;;;14.15;80.20;99308.47;5092572;28;20060;-62
2022/09/15 03:04:46;;;;;;;;;;;;;;;14.13;79.38;99311.66;5103768;28;20047;-62
2022/09/15 03:07:13;;;;;;;27.58;16.48;;;;;;;14.15;80.20;99300.91;5112845;28;19928;-63
2022/09/15 03:09:43;;;;;;;25.85;15.65;;;;;;;14.19;78.68;99314.97;5126658;27;20063;-62
2022/09/15 03:12:11;;;;;;;26.70;14.75;;;;;;;14.19;79.84;99306.56;5133564;27;20055;-63
2022/09/15 03:14:38;;;;;;;26.25;15.27;;;;;;;14.18;78.39;99318.97;5105576;27;20059;-63
2022/09/15 03:17:05;;;;;;;26.08;15.70;;;;;;;14.19;78.63;99313.00;5092508;28;20059;-63
2022/09/15 03:19:34;;;;;;;28.27;16.75;;;;;;;14.16;79.38;99322.13;5092504;28;20403;-63
2022/09/15 03:22:02;;;;;;;23.98;15.43;;;;;;;14.17;79.79;99322.94;5093022;28;20503;-63
2022/09/15 03:24:29;;;;;;;30.67;18.08;;;;;;;14.15;79.23;99320.50;5092868;28;20052;-63
2022/09/15 03:26:56;;;;;;;38.30;20.48;;;;;;;14.17;79.40;99318.16;5095393;28;20055;-62
2022/09/15 03:29:24;;;;;;;32.92;18.98;;;;;;;14.18;78.27;99324.56;5097698;28;20055;-63
2022/09/15 03:31:51;;;;;;;25.27;16.25;;;;;;;14.17;78.70;99328.53;5098123;28;20070;-63
2022/09/15 03:34:18;;;;;;;33.72;17.73;;;;;;;14.19;79.15;99326.16;5112752;28;20056;-62
2022/09/15 03:36:47;;;;;;;26.88;18.10;;;;;;;14.23;78.50;99321.47;5112617;28;20055;-63
2022/09/15 03:39:15;;;;;;;34.72;20.65;;;;;;;14.23;78.87;99329.84;5112574;28;20457;-62
2022/09/15 03:41:42;;;;;;;26.33;16.33;;;;;;;14.27;79.10;99327.16;5099326;28;20059;-62
2022/09/15 03:44:09;;;;;;;24.90;16.48;;;;;;;14.28;78.52;99329.59;5092117;28;20048;-62
2022/09/15 03:46:36;;;;;;;24.23;15.07;;;;;;;14.31;79.23;99328.03;5092509;28;20044;-63
2022/09/15 03:49:04;;;;;;;24.48;15.60;;;;;;;14.30;78.13;99318.00;5092140;28;20504;-63
2022/09/15 03:51:31;;;;;;;24.60;15.93;;;;;;;14.28;79.39;99321.19;5092113;28;20062;-62
2022/09/15 03:54:00;;;;;;;27.17;17.02;;;;;;;14.23;79.14;99331.84;5092049;28;20052;-62
2022/09/15 03:56:30;;;;;;;31.50;19.65;;;;;;;14.23;80.30;99326.25;5091770;28;20408;-63
2022/09/15 03:58:58;;;;;;;29.98;18.67;;;;;;;14.24;79.45;99327.88;5092011;28;20059;-63
2022/09/15 04:01:26;;;;;;;26.63;18.58;;;;;;;14.23;79.84;99329.84;5106284;28;20411;-63
2022/09/15 04:03:53;;;;;;;22.52;15.07;;;;;;;14.31;80.93;99330.84;5098591;28;20055;-62
2022/09/15 04:06:22;;;;;;;31.92;17.90;;;;;;;14.38;80.38;99329.00;5112311;28;20099;-62
2022/09/15 04:08:50;;;;;;;21.92;15.80;;;;;;;14.44;80.54;99323.91;5119289;28;20055;-62
2022/09/15 04:11:20;;;;;;;25.90;17.10;;;;;;;14.44;79.96;99323.09;5094339;28;20063;-62
2022/09/15 04:13:48;;;;;;;23.02;16.80;;;;;;;14.55;80.33;99318.50;5091794;28;20059;-63
2022/09/15 04:16:17;;;;;;;24.50;16.52;;;;;;;14.56;80.81;99320.97;5094800;28;20048;-63
2022/09/15 04:18:45;;;;;;;23.67;15.40;;;;;;;14.70;79.92;99322.44;5099951;28;20048;-63
2022/09/15 04:21:15;;;;;;;21.02;15.10;;;;;;;14.78;79.77;99321.41;5115913;28;20486;-63
2022/09/15 04:23:43;;;;;;;30.02;18.92;;;;;;;14.77;80.01;99320.59;5116069;28;20054;-62
2022/09/15 04:26:16;;;;;;;25.55;16.45;;;;;;;14.67;80.58;99326.00;5115738;28;20070;-63
2022/09/15 04:28:44;;;;;;;24.70;16.73;;;;;;;14.69;79.80;99321.63;5115956;28;20060;-63
2022/09/15 04:31:14;;;;;;;24.10;16.42;;;;;;;14.67;79.77;99328.78;5115776;28;20055;-63
2022/09/15 04:33:43;;;;;;;23.15;15.85;;;;;;;14.80;79.89;99325.47;5103041;28;20052;-63
2022/09/15 04:36:12;;;;;;;24.83;16.40;;;;;;;14.88;79.70;99329.19;5095189;28;20044;-63
2022/09/15 04:38:41;;;;;;;;;;;;;;;14.90;78.62;99328.84;5106078;28;20058;-63
2022/09/15 04:41:08;;;;;;;22.42;15.07;;;;;;;15.00;79.32;99331.84;5115812;28;20279;-63
2022/09/15 04:43:36;;;;;;;27.05;17.45;;;;;;;15.07;78.77;99333.97;5115489;28;20059;-63
2022/09/15 04:46:05;;;;;;;27.33;17.85;;;;;;;15.12;78.04;99332.84;5115158;28;20420;-63
2022/09/15 04:48:33;;;;;;;29.25;17.83;;;;;;;15.14;78.07;99330.47;5114209;28;20416;-64
2022/09/15 04:51:05;;;;;;;22.80;16.52;;;;;;;15.19;77.88;99332.97;5107967;28;20052;-64
2022/09/15 04:53:32;;;;;;;20.45;14.15;;;;;;;15.19;79.39;99327.38;5114425;28;20492;-63
2022/09/15 04:56:04;;;;;;;20.67;15.02;;;;;;;15.29;78.47;99321.13;5114314;28;20051;-63
2022/09/15 04:58:36;;;;;;;20.80;13.95;;;;;;;15.33;78.08;99326.78;5109655;28;20050;-64
2022/09/15 05:01:09;;;;;;;25.48;16.83;;;;;;;15.32;78.27;99326.00;5115210;28;20058;-64
2022/09/15 05:03:37;;;;;;;24.33;15.77;;;;;;;15.38;77.37;99334.91;5103989;28;20048;-64
2022/09/15 05:06:06;;;;;;;25.30;17.52;;;;;;;15.26;78.17;99333.09;5094484;28;20059;-64
2022/09/15 05:08:34;;;;;;;19.77;14.65;;;;;;;15.36;77.16;99329.66;5103635;27;20054;-64
2022/09/15 05:11:02;;;;;;;26.48;17.42;;;;;;;15.30;77.68;99333.97;5104519;27;20059;-64
2022/09/15 05:13:29;;;;;;;21.85;17.58;;;;;;;15.22;77.80;99332.22;5108432;28;20423;-64
2022/09/15 05:16:02;;;;;;;28.13;18.17;;;;;;;15.28;77.71;99329.91;5110697;28;20055;-64
2022/09/15 05:18:31;;;;;;;24.52;16.50;;;;;;;15.27;78.12;99334.72;5094649;28;20056;-64
2022/09/15 05:21:00;;;;;;;22.85;16.70;;;;;;;15.28;77.59;99336.34;5106442;28;20507;-64
2022/09/15 05:23:27;;;;;;;25.70;17.45;;;;;;;15.24;78.27;99335.47;5095621;28;20527;-48
2022/09/15 05:25:55;;;;;;;27.48;16.40;;;;;;;14.92;80.02;99335.69;5110231;28;20043;-52
2022/09/15 05:28:23;;;;;;;24.23;16.58;;;;;;;14.81;81.03;99337.50;5110884;28;20616;-49
2022/09/15 05:30:51;;;;;;;20.70;15.57;;;;;;;15.15;80.18;99340.50;5102740;28;20074;-52
2022/09/15 05:33:19;;;;;;;30.48;18.77;;;;;;;15.08;80.25;99332.00;5093671;28;20056;-49
2022/09/15 05:35:55;;;;;;;22.10;16.67;;;;;;;15.19;80.66;99330.19;5093997;28;20048;-48
2022/09/15 05:38:23;;;;;;;24.33;16.73;;;;;;;15.37;79.84;99338.88;5100845;28;20047;-63
2022/09/15 05:40:51;;;;;;;20.27;15.85;;;;;;;15.58;78.75;99346.84;5104549;28;20059;-64
2022/09/15 05:43:19;;;;;;;37.85;26.23;;;;;;;15.75;78.25;99343.56;5112579;28;20408;-64
2022/09/15 05:45:54;;;;;;;30.38;21.65;;;;;;;15.88;77.83;99348.97;5114392;28;20051;-64
2022/09/15 05:48:23;;;;;;;22.92;15.88;;;;;;;15.96;77.45;99348.69;5114591;28;20503;-63
2022/09/15 05:50:53;;;;;;;23.60;16.70;;;;;;;16.06;76.41;99352.84;5114483;28;20476;-64
2022/09/15 05:53:21;;;;;;;19.88;14.93;;;;;;;16.10;76.22;99348.09;5113675;28;20047;-64
2022/09/15 05:55:48;;;;;;;18.83;13.95;;;;;;;16.19;75.64;99343.00;5109775;28;20048;-64
2022/09/15 05:58:16;;;;;;;23.85;16.38;;;;;;;16.10;75.97;99348.09;5106275;28;20052;-64
2022/09/15 06:00:43;;;;;;;25.73;16.02;;;;;;;16.21;75.31;99351.88;5106573;28;20052;-64
2022/09/15 06:03:14;;;;;;;22.67;16.17;;;;;;;16.27;75.06;99357.16;5093680;28;20063;-64
2022/09/15 06:05:41;;;;;;;19.73;14.15;;;;;;;16.35;75.21;99353.25;5093284;28;20055;-64
2022/09/15 06:08:10;;;;;;;21.17;15.02;;;;;;;16.40;74.37;99352.94;5095645;27;20048;-64
2022/09/15 06:10:37;;;;;;;19.60;14.60;;;;;;;16.48;74.31;99363.06;5117711;27;20554;-64
2022/09/15 06:13:05;;;;;;;23.65;15.52;;;;;;;16.43;74.32;99355.78;5097668;28;20055;-64
2022/09/15 06:15:32;;;;;;;24.00;15.90;;;;;;;16.47;74.16;99350.19;5098614;28;20063;-64
2022/09/15 06:17:59;;;;;;;24.10;14.98;;;;;;;16.54;73.34;99361.53;5106240;28;20384;-64
2022/09/15 06:20:26;;;;;;;20.92;15.40;;;;;;;16.57;73.35;99357.97;5107216;28;20118;-64
2022/09/15 06:22:54;;;;;;;19.35;14.77;;;;;;;16.62;73.92;99366.03;5104543;28;20051;-64
2022/09/15 06:25:23;;;;;;;20.33;14.55;;;;;;;16.67;74.05;99366.91;5093152;28;20407;-64
2022/09/15 06:27:50;;;;;;;20.73;13.73;;;;;;;16.78;74.01;99370.69;5098278;28;20045;-64
2022/09/15 06:30:18;;;;;;;21.23;14.75;;;;;;;16.83;73.50;99370.34;5105970;28;20419;-63
2022/09/15 06:32:45;;;;;;;22.13;14.75;;;;;;;16.88;72.97;99377.63;5097867;27;20052;-63
2022/09/15 06:35:14;;;;;;;19.25;15.15;;;;;;;16.83;73.13;99379.59;5108339;28;20050;-63
2022/09/15 06:37:41;;;;;;;22.33;14.27;;;;;;;16.80;73.30;99386.00;5108310;28;20043;-63
2022/09/15 06:40:09;;;;;;;18.45;13.10;;;;;;;16.89;73.61;99385.69;5095110;28;20048;-63
2022/09/15 06:42:38;;;;;;;17.80;12.57;;;;;;;17.01;73.06;99384.63;5096913;28;20048;-62
2022/09/15 06:45:06;;;;;;;18.95;13.90;;;;;;;17.02;72.45;99381.41;5111897;28;20051;-63
2022/09/15 06:47:33;;;;;;;17.52;12.90;;;;;;;17.13;73.07;99386.34;5109075;28;20405;-63
2022/09/15 06:50:00;;;;;;;16.52;12.73;;;;;;;17.22;72.05;99386.88;5096654;28;20047;-63
2022/09/15 06:52:28;;;;;;;18.45;13.27;;;;;;;17.29;71.68;99389.75;5108799;28;20060;-63
2022/09/15 06:54:55;;;;;;;20.85;15.55;;;;;;;17.24;71.92;99384.47;5106090;28;20495;-63
2022/09/15 06:57:22;;;;;;;18.77;13.55;;;;;;;17.31;71.57;99400.63;5101485;28;20051;-63
2022/09/15 06:59:51;;;;;;;18.33;13.05;;;;;;;17.38;71.85;99398.66;5100740;28;20439;-62
2022/09/15 07:02:18;;;;;;;18.75;14.93;;;;;;;17.37;71.94;99402.69;5104513;28;20415;-63
2022/09/15 07:04:45;;;;;;;19.42;13.55;;;;;;;17.47;71.86;99400.38;5109114;28;20055;-62
2022/09/15 07:07:12;;;;;;;16.65;13.73;;;;;;;17.57;71.42;99405.28;5108391;28;20526;-62
2022/09/15 07:09:40;;;;;;;17.00;13.77;;;;;;;17.68;71.16;99409.03;5098579;28;20048;-62
2022/09/15 07:12:07;;;;;;;17.80;13.63;;;;;;;17.77;71.30;99408.69;5094113;28;20052;-63
2022/09/15 07:14:35;;;;;;;19.75;13.68;;;;;;;17.76;70.73;99412.69;5111215;28;20063;-62
2022/09/15 07:17:03;;;;;;;17.33;13.57;;;;;;;17.69;70.37;99412.66;5092676;28;20060;-62
2022/09/15 07:19:31;;;;;;;19.13;13.35;;;;;;;17.74;70.26;99424.34;5093899;28;20055;-62
2022/09/15 07:21:58;;;;;;;17.25;12.85;;;;;;;17.82;71.12;99430.88;5112705;28;20056;-62
2022/09/15 07:24:25;;;;;;;16.50;12.48;;;;;;;17.84;70.70;99426.47;5093855;28;20052;-63
2022/09/15 07:26:53;;;;;;;17.23;11.93;;;;;;;17.92;71.00;99418.91;5092011;28;20048;-62
2022/09/15 07:29:20;;;;;;;15.15;12.07;;;;;;;17.96;70.75;99424.59;5096669;28;20047;-63
2022/09/15 07:31:47;;;;;;;15.27;11.35;;;;;;;18.08;70.50;99427.09;5104251;28;20059;-63
2022/09/15 07:34:16;;;;;;;14.98;12.20;;;;;;;18.21;70.19;99421.94;5100067;28;20048;-62
2022/09/15 07:36:43;;;;;;;15.00;11.70;;;;;;;18.34;69.04;99420.41;5108711;28;20047;-62
2022/09/15 07:39:10;;;;;;;16.38;11.05;;;;;;;18.40;68.80;99421.66;5107770;28;20055;-63
2022/09/15 07:41:38;;;;;;;11.85;9.50;;;;;;;18.49;68.36;99435.41;5104206;28;20052;-63
2022/09/15 07:44:06;;;;;;;12.77;8.95;;;;;;;18.49;68.46;99432.59;5098711;28;20052;-62
2022/09/15 07:46:34;;;;;;;9.90;7.75;;;;;;;18.51;67.95;99435.03;5100579;28;20476;-63
2022/09/15 07:49:01;;;;;;;9.05;7.05;;;;;;;18.50;67.50;99437.03;5098249;28;20056;-63
2022/09/15 07:51:31;;;;;;;9.20;7.40;;;;;;;18.55;66.61;99438.69;5116069;28;20055;-62
2022/09/15 07:53:58;;;;;;;9.52;7.20;;;;;;;18.50;66.67;99445.50;5115282;28;21763;-63
2022/09/15 07:56:25;;;;;;;10.57;6.85;;;;;;;18.63;66.28;99441.13;5104780;28;20044;-63
2022/09/15 07:58:52;;;;;;;13.93;7.55;;;;;;;18.73;65.46;99442.41;5102635;28;20046;-63
2022/09/15 08:01:21;;;;;;;13.23;7.90;;;;;;;18.87;66.27;99450.16;5104476;28;20052;-62
2022/09/15 08:03:50;;;;;;;12.23;7.65;;;;;;;18.93;65.49;99451.41;5106043;28;20059;-63
2022/09/15 08:06:20;;;;;;;11.80;8.05;;;;;;;19.01;65.33;99441.75;5103103;28;20058;-63
2022/09/15 08:08:49;;;;;;;;;;;;;;;18.97;65.09;99443.75;5106341;27;20058;-62
2022/09/15 08:11:18;;;;;;;;;;;;;;;19.13;64.70;99448.22;5111253;28;19927;-61
2022/09/15 08:13:45;;;;;;;11.40;7.50;;;;;;;19.27;64.99;99446.25;5115624;28;19919;-63
2022/09/15 08:16:14;;;;;;;10.68;6.45;;;;;;;19.50;62.96;99445.13;5108949;28;20059;-62
2022/09/15 08:18:42;;;;;;;9.98;6.15;;;;;;;19.77;62.69;99445.59;5111775;28;20050;-62
2022/09/15 08:21:12;;;;;;;8.13;5.95;;;;;;;19.94;61.64;99444.00;5113748;28;20063;-63
2022/09/15 08:23:40;;;;;;;10.15;6.22;;;;;;;20.05;61.61;99444.81;5104719;28;20056;-62
2022/09/15 08:26:11;;;;;;;8.80;5.93;;;;;;;20.37;60.34;99452.47;5096806;28;20047;-62
2022/09/15 08:28:38;;;;;;;8.20;5.78;;;;;;;20.61;59.65;99450.03;5094986;28;20488;-63
2022/09/15 08:31:09;;;;;;;9.23;5.95;;;;;;;20.91;58.95;99452.34;5096526;28;20435;-63
2022/09/15 08:33:36;;;;;;;9.95;6.25;;;;;;;21.14;57.44;99451.84;5108188;28;20051;-63
2022/09/15 08:36:06;;;;;;;8.27;5.70;;;;;;;21.30;56.41;99457.03;5114108;28;20059;-63
2022/09/15 08:38:33;;;;;;;8.65;5.47;;;;;;;21.36;56.68;99463.91;5106535;28;20047;-63
2022/09/15 08:41:03;;;;;;;8.90;5.53;;;;;;;21.31;56.17;99472.81;5111314;28;20052;-63
2022/09/15 08:43:38;;;;;;;10.80;5.40;;;;;;;21.42;56.54;99470.78;5104800;28;20052;-63
2022/09/15 08:46:11;;;;;;;9.07;5.07;;;;;;;21.65;56.02;99472.28;5102529;28;20048;-63
2022/09/15 08:48:43;;;;;;;8.27;5.00;;;;;;;21.96;54.55;99481.75;5104840;28;20480;-63
2022/09/15 08:51:20;;;;;;;8.13;5.05;;;;;;;22.16;54.74;99475.53;5103442;28;20066;-63
2022/09/15 08:53:53;;;;;;;6.53;4.90;;;;;;;22.21;53.65;99470.19;5114260;28;20056;-63
2022/09/15 08:56:21;;;;;;;8.10;5.18;;;;;;;22.40;53.06;99476.56;5100168;28;20048;-63
2022/09/15 08:58:49;;;;;;;8.88;5.65;;;;;;;22.43;52.76;99481.41;5102229;28;20048;-63
2022/09/15 09:01:26;;;;;;;9.88;5.38;;;;;;;22.58;52.50;99480.03;5101528;28;20058;-63
2022/09/15 09:04:12;;;;;;;7.88;5.35;;;;;;;22.73;51.92;99479.91;5114105;28;20051;-63
2022/09/15 09:06:52;;;;;;;6.15;4.80;;;;;;;22.83;52.37;99487.50;5108150;28;20048;-63
2022/09/15 09:09:30;;;;;;;7.75;4.93;;;;;;;23.04;50.76;99484.44;5126012;27;20055;-63
2022/09/15 09:12:25;;;;;;;6.65;4.88;;;;;;;23.27;51.04;99477.28;5125244;27;20058;-63
2022/09/15 09:15:08;;;;;;;6.35;4.50;;;;;;;23.57;50.00;99484.16;5115234;28;20055;-62
2022/09/15 09:17:53;;;;;;;6.47;4.80;;;;;;;23.44;48.76;99490.44;5114241;28;20048;-63
2022/09/15 09:20:33;;;;;;;8.07;4.85;;;;;;;23.50;49.08;99491.56;5112791;28;20055;-63
2022/09/15 09:23:04;;;;;;;7.38;4.55;;;;;;;23.60;47.22;99483.31;5112238;28;20063;-63
2022/09/15 09:25:31;;;;;;;7.10;4.30;;;;;;;24.11;47.25;99487.03;5114796;28;20385;-63
2022/09/15 09:28:01;;;;;;;6.57;4.05;;;;;;;24.42;45.87;99486.91;5114080;28;20059;-63
2022/09/15 09:30:34;;;;;;;7.90;4.20;;;;;;;24.77;45.11;99481.84;5114419;28;20056;-63
2022/09/15 09:33:18;;;;;;;4.53;3.33;;;;;;;25.20;43.81;99483.84;5113996;28;20507;-63
2022/09/15 09:35:48;;;;;;;5.47;2.30;;;;;;;25.01;41.57;99486.28;5111881;28;20058;-63
2022/09/15 09:38:21;;;;;;;6.28;3.22;;;;;;;25.07;43.46;99493.06;5112509;28;20511;-62
2022/09/15 09:40:49;;;;;;;5.18;2.33;;;;;;;25.06;42.50;99496.34;5114496;28;20048;-62
2022/09/15 09:43:17;;;;;;;3.40;1.50;;;;;;;24.77;41.02;99501.78;5101040;28;20412;-62
2022/09/15 09:45:45;;;;;;;4.53;2.17;;;;;;;24.70;41.61;99495.00;5093322;28;20068;-62
2022/09/15 09:48:18;;;;;;;4.63;1.70;;;;;;;24.84;40.38;99495.94;5097897;28;20052;-61
2022/09/15 09:50:48;;;;;;;3.85;1.80;;;;;;;25.11;39.09;99498.69;5101414;28;20051;-62
2022/09/15 09:53:20;;;;;;;4.30;2.10;;;;;;;25.05;38.83;99494.72;5102600;28;20048;-62
2022/09/15 09:55:47;;;;;;;5.82;1.70;;;;;;;24.98;39.03;99500.56;5107230;28;20054;-61
2022/09/15 09:58:19;;;;;;;3.80;1.83;;;;;;;24.96;39.31;99503.06;5104698;28;20055;-62
2022/09/15 10:00:48;;;;;;;3.70;1.60;;;;;;;24.84;39.46;99498.78;5105143;28;20051;-62
2022/09/15 10:03:17;;;;;;;5.55;1.92;;;;;;;25.14;39.36;99494.16;5104496;28;20431;-60
2022/09/15 10:05:45;;;;;;;;;;;;;;;25.55;37.91;99492.91;5103010;28;20060;-61
2022/09/15 10:08:18;;;;;;;4.80;2.05;;;;;;;26.42;37.31;99490.47;5108284;27;19942;-61
2022/09/15 10:10:52;;;;;;;3.67;1.90;;;;;;;27.30;36.03;99487.72;5115126;27;20051;-61
2022/09/15 10:13:21;;;;;;;5.03;1.83;;;;;;;27.50;34.34;99491.16;5100044;28;20048;-61
2022/09/15 10:15:54;;;;;;;5.90;1.73;;;;;;;27.49;34.44;99494.50;5092910;28;20055;-62
2022/09/15 10:18:28;;;;;;;3.35;1.50;;;;;;;27.13;34.57;99489.78;5092727;28;21784;-61
2022/09/15 10:20:56;;;;;;;4.22;1.83;;;;;;;26.62;35.33;99493.22;5099287;28;20062;-61
2022/09/15 10:23:26;;;;;;;4.07;1.48;;;;;;;26.11;35.67;99487.16;5110186;28;20078;-63
2022/09/15 10:25:55;;;;;;;5.15;1.88;;;;;;;25.51;36.71;99476.69;5112579;28;20052;-59
2022/09/15 10:28:24;;;;;;;4.43;1.30;;;;;;;25.18;36.43;99475.75;5104583;28;20044;-62
2022/09/15 10:31:06;;;;;;;4.15;1.50;;;;;;;25.09;36.89;99479.19;5112635;28;20047;-62
2022/09/15 10:33:35;;;;;;;3.40;1.30;;;;;;;24.85;37.62;99483.34;5092651;28;20503;-62
2022/09/15 10:36:05;;;;;;;4.43;1.48;;;;;;;24.81;37.67;99476.91;5095136;28;20415;-62
2022/09/15 10:38:45;;;;;;;3.88;1.10;;;;;;;24.76;36.97;99481.06;5103129;28;20415;-62
2022/09/15 10:41:21;;;;;;;5.45;1.60;;;;;;;24.73;37.98;99478.28;5111974;28;20051;-62
2022/09/15 10:44:13;;;;;;;7.22;1.50;;;;;;;24.58;37.62;99480.59;5112476;28;20074;-61
2022/09/15 10:46:52;;;;;;;3.58;1.05;;;;;;;24.50;37.87;99482.75;5109992;28;20078;-62
2022/09/15 10:49:34;;;;;;;3.08;1.20;;;;;;;24.08;38.42;99491.53;5091285;28;20055;-61
2022/09/15 10:52:12;;;;;;;4.22;1.45;;;;;;;23.87;38.98;99491.88;5094070;28;20062;-60
2022/09/15 10:54:58;;;;;;;4.35;1.70;;;;;;;23.58;38.74;99497.13;5106942;28;20591;-61
2022/09/15 10:57:41;;;;;;;3.30;1.60;;;;;;;23.39;39.10;99495.78;5090098;28;20063;-61
2022/09/15 11:00:12;;;;;;;3.45;1.15;;;;;;;23.18;39.78;99496.84;5097967;28;20054;-62
2022/09/15 11:03:02;;;;;;;3.10;1.05;;;;;;;22.75;40.68;99498.13;5096665;28;20051;-61
2022/09/15 11:05:41;;;;;;;4.28;1.35;;;;;;;22.59;40.77;99495.03;5091873;28;20055;-62
2022/09/15 11:08:22;;;;;;;3.38;1.15;;;;;;;22.08;41.78;99511.66;5094371;27;20047;-62
2022/09/15 11:10:59;;;;;;;4.38;1.40;;;;;;;21.86;42.19;99505.34;5102170;28;20055;-61
2022/09/15 11:13:33;;;;;;;5.97;1.20;;;;;;;21.57;43.04;99510.38;5101783;28;20504;-61
2022/09/15 11:16:11;;;;;;;4.45;1.55;;;;;;;21.47;43.81;99512.81;5095820;28;20056;-62
2022/09/15 11:18:59;;;;;;;3.80;1.20;;;;;;;21.01;44.51;99508.13;5099873;28;20039;-62
2022/09/15 11:21:32;;;;;;;5.40;1.33;;;;;;;20.73;46.22;99525.19;5098197;28;20059;-62
2022/09/15 11:24:29;;;;;;;5.78;1.30;;;;;;;20.33;47.58;99525.19;5103633;28;20059;-62
2022/09/15 11:27:00;;;;;;;3.78;1.30;;;;;;;19.85;51.86;99543.31;5096961;28;20409;-62
2022/09/15 11:29:31;;;;;;;5.18;1.70;;;;;;;19.69;54.19;99534.34;5110376;28;20507;-62
2022/09/15 11:32:03;;;;;;;4.72;1.90;;;;;;;19.63;55.08;99539.59;5108770;28;20067;-62
2022/09/15 11:34:35;;;;;;;5.13;1.95;;;;;;;19.56;55.66;99539.56;5104713;28;20040;-62
2022/09/15 11:37:09;;;;;;;3.90;1.52;;;;;;;19.48;56.97;99543.56;5095796;28;20067;-61
2022/09/15 11:39:44;;;;;;;6.53;1.92;;;;;;;19.42;57.80;99540.34;5102101;28;20051;-62
2022/09/15 11:42:17;;;;;;;4.78;1.80;;;;;;;19.44;58.64;99542.75;5103390;28;20484;-62
2022/09/15 11:44:47;;;;;;;5.88;2.10;;;;;;;19.50;56.82;99540.34;5096267;28;20408;-62